Terminal Aerodrome Forecast
Issued by NWS Wilmington, OH

Current Version | Previous Version | Graphics & Text | Print | Product List | Glossary On
Versions: 1 2 3 4 5 6 7 8 9 10 11 12 13 14 15 16 17 18 19 20 21 22 23 24 25 26 27 28 29
000
FTUS41 KILN 271500 AAA
TAFCVG
TAF AMD
KCVG 271520Z 2715/2818 22012G20KT P6SM SCT035
     FM271800 23012G20KT P6SM VCTS SCT040CB BKN100
      TEMPO 2719/2721 3SM TSRA BKN040CB
     FM272200 24011KT P6SM FEW040 BKN100
     FM280500 24004KT P6SM FEW050
     FM280900 00000KT 5SM BR FEW020
     FM281400 11005KT P6SM SCT040=

USA.gov is the U.S. government's official web portal to all federal, state and local government web resources and services.